CheckWX is a tool to help pilots better visualize weather data.  It is not intended as a substitute for an official pre-flight weather briefing.

20:19:26 UTC

KCMY METAR
Sparta / Fort Mc Coy Airport
Sparta, Wisconsin, USA
Current

24 mins ago

KCMY 231955Z AUTO 30006KT 10SM CLR 18/01 A3005 RMK AO2 T01800013
Observed
Apr-23 @ 19:55 UTC
Wind
  • 300° at 6 KTS
Visibility
10 SM
Flight Rules
VFR
Cloud Levels
  • Clear skies
Temperature
18°C / 64°F
Dewpoint
C / 34°F
Humidity
32%
Altimeter
30.05" Hg
Pressure
1017.62 hPa
Previous

44 mins ago

KCMY 231935Z AUTO 35009KT 10SM CLR 18/02 A3006 RMK AO2 T01790015
Observed
Apr-23 @ 19:35 UTC
Wind
  • 350° at 9 KTS
Visibility
10 SM
Flight Rules
VFR
Cloud Levels
  • Clear skies
Temperature
18°C / 64°F
Dewpoint
C / 36°F
Humidity
34%
Altimeter
30.06" Hg
Pressure
1017.92 hPa
Previous

1 hour ago

KCMY 231915Z AUTO 00000KT 10SM CLR 17/01 A3007 RMK AO2 T01710012
Observed
Apr-23 @ 19:15 UTC
Visibility
10 SM
Flight Rules
VFR
Cloud Levels
  • Clear skies
Temperature
17°C / 63°F
Dewpoint
C / 34°F
Humidity
34%
Altimeter
30.07" Hg
Pressure
1018.32 hPa